createdAt,value
2022-09-12T00:00:14.879Z,10.60
2022-09-12T00:02:42.075Z,10.60
2022-09-12T00:07:55.906Z,10.40
2022-09-12T00:13:10.646Z,10.40
2022-09-12T00:15:42.478Z,10.50
2022-09-12T00:18:13.830Z,10.40
2022-09-12T00:20:47.241Z,10.40
2022-09-12T00:23:14.990Z,10.40
2022-09-12T00:25:47.005Z,10.40
2022-09-12T00:30:44.712Z,10.40
2022-09-12T00:33:12.560Z,10.40
2022-09-12T00:35:47.835Z,10.50
2022-09-12T00:38:16.100Z,10.50
2022-09-12T00:40:43.292Z,10.60
2022-09-12T00:43:37.746Z,10.50
2022-09-12T00:46:14.030Z,10.60
2022-09-12T00:48:49.805Z,10.60
2022-09-12T00:53:48.410Z,10.40
2022-09-12T00:56:17.737Z,10.40
2022-09-12T00:59:17.553Z,10.30
2022-09-12T01:01:46.925Z,10.30
2022-09-12T01:04:14.068Z,10.30
2022-09-12T01:06:43.076Z,10.30
2022-09-12T01:12:02.703Z,10.20
2022-09-12T01:17:17.703Z,10.20
2022-09-12T01:20:26.028Z,10.10
2022-09-12T01:23:04.505Z,10.10
2022-09-12T01:25:35.770Z,10.10
2022-09-12T01:31:05.719Z,10.10
2022-09-12T01:33:55.582Z,10.00
2022-09-12T01:36:28.468Z,10.00
2022-09-12T01:39:02.163Z,10.00
2022-09-12T01:41:44.192Z,9.90
2022-09-12T01:44:35.277Z,9.80
2022-09-12T01:47:19.764Z,9.90
2022-09-12T01:49:49.208Z,9.90
2022-09-12T01:55:27.862Z,9.80
2022-09-12T01:58:13.442Z,9.90
2022-09-12T02:03:47.877Z,9.90
2022-09-12T02:06:38.617Z,9.80
2022-09-12T02:12:04.533Z,9.80
2022-09-12T02:14:39.565Z,9.80
2022-09-12T02:17:10.765Z,9.80
2022-09-12T02:22:35.118Z,9.80
2022-09-12T02:25:03.656Z,9.90
2022-09-12T02:27:38.292Z,10.00
2022-09-12T02:30:09.853Z,10.00
2022-09-12T02:32:54.480Z,9.90
2022-09-12T02:35:32.239Z,9.80
2022-09-12T02:38:25.412Z,9.70
2022-09-12T02:43:39.170Z,9.70
2022-09-12T02:48:56.992Z,9.90
2022-09-12T02:51:24.040Z,9.70
2022-09-12T02:53:51.414Z,9.70
2022-09-12T02:56:30.542Z,9.60
2022-09-12T02:59:05.216Z,9.60
2022-09-12T03:08:07.349Z,9.50
2022-09-12T03:10:58.331Z,9.40
2022-09-12T03:13:30.930Z,9.40
2022-09-12T03:16:16.533Z,9.40
2022-09-12T03:19:07.119Z,9.30
2022-09-12T03:21:43.618Z,9.30
2022-09-12T03:24:19.315Z,9.40
2022-09-12T03:26:58.914Z,9.30
2022-09-12T03:29:27.208Z,9.40
2022-09-12T03:31:56.789Z,9.30
2022-09-12T03:34:25.664Z,9.40
2022-09-12T03:36:53.440Z,9.40
2022-09-12T03:39:20.133Z,9.30
2022-09-12T03:41:46.910Z,9.30
2022-09-12T03:47:00.251Z,9.40
2022-09-12T03:52:13.622Z,9.30
2022-09-12T03:57:27.186Z,9.40
2022-09-12T03:59:53.887Z,9.30
2022-09-12T04:02:20.629Z,9.30
2022-09-12T04:04:47.384Z,9.20
2022-09-12T04:07:14.539Z,9.30
2022-09-12T04:09:41.292Z,9.30
2022-09-12T04:12:08.218Z,9.20
2022-09-12T04:14:34.975Z,9.20
2022-09-12T04:17:02.177Z,9.10
2022-09-12T04:19:28.976Z,9.10
2022-09-12T04:21:55.750Z,9.10
2022-09-12T04:24:22.540Z,9.00
2022-09-12T04:26:49.260Z,9.00
2022-09-12T04:29:16.144Z,8.90
2022-09-12T04:31:43.036Z,8.90
2022-09-12T04:34:10.042Z,8.90
2022-09-12T04:36:37.077Z,8.90
2022-09-12T04:39:05.068Z,8.90
2022-09-12T04:41:37.583Z,8.90
2022-09-12T04:46:59.051Z,8.90
2022-09-12T04:52:12.457Z,9.00
2022-09-12T04:57:25.890Z,9.00
2022-09-12T05:02:40.236Z,9.00
2022-09-12T05:05:07.854Z,9.00
2022-09-12T05:07:35.017Z,9.00
2022-09-12T05:10:02.096Z,9.10
2022-09-12T05:12:28.855Z,9.10
2022-09-12T05:14:55.649Z,9.20
2022-09-12T05:17:22.349Z,9.20
2022-09-12T05:19:49.115Z,9.20
2022-09-12T05:22:15.829Z,9.20
2022-09-12T05:24:42.841Z,9.20
2022-09-12T05:27:11.157Z,9.30
2022-09-12T05:29:37.845Z,9.20
2022-09-12T05:32:04.761Z,9.30
2022-09-12T05:34:31.479Z,9.30
2022-09-12T05:36:58.250Z,9.30
2022-09-12T05:39:24.989Z,9.40
2022-09-12T05:44:18.357Z,9.50
2022-09-12T05:46:45.600Z,9.60
2022-09-12T05:49:13.736Z,9.80
2022-09-12T05:51:45.396Z,9.90
2022-09-12T05:54:14.785Z,9.90
2022-09-12T05:56:43.557Z,10.00
2022-09-12T05:59:19.304Z,10.10
2022-09-12T06:04:13.575Z,10.30
2022-09-12T06:06:42.896Z,10.50
2022-09-12T06:11:56.358Z,10.80
2022-09-12T06:17:10.025Z,11.20
2022-09-12T06:19:37.143Z,11.10
2022-09-12T06:22:03.920Z,11.10
2022-09-12T06:24:30.635Z,11.40
2022-09-12T06:26:57.391Z,11.60
2022-09-12T06:29:24.249Z,11.60
2022-09-12T06:31:50.990Z,11.50
2022-09-12T06:34:17.758Z,11.80
2022-09-12T06:36:46.894Z,11.90
2022-09-12T06:39:16.302Z,12.00
2022-09-12T06:41:44.236Z,12.00
2022-09-12T06:44:14.747Z,12.00
2022-09-12T06:46:42.180Z,12.10
2022-09-12T06:49:08.992Z,12.50
2022-09-12T06:51:35.844Z,12.60
2022-09-12T06:54:03.518Z,12.80
2022-09-12T06:56:30.924Z,12.90
2022-09-12T06:58:58.801Z,13.30
2022-09-12T07:01:30.713Z,13.40
2022-09-12T07:06:49.197Z,13.60
2022-09-12T07:12:03.217Z,13.90
2022-09-12T07:14:30.194Z,14.10
2022-09-12T07:16:56.973Z,14.20
2022-09-12T07:19:23.703Z,14.40
2022-09-12T07:21:52.431Z,14.50
2022-09-12T07:24:21.991Z,14.60
2022-09-12T07:26:48.701Z,14.80
2022-09-12T07:32:03.924Z,15.00
2022-09-12T07:34:30.658Z,15.10
2022-09-12T07:36:57.418Z,15.20
2022-09-12T07:39:24.155Z,15.30
2022-09-12T07:41:50.906Z,15.40
2022-09-12T07:44:17.630Z,15.50
2022-09-12T07:46:44.354Z,15.70
2022-09-12T07:49:12.537Z,15.70
2022-09-12T07:51:39.247Z,15.90
2022-09-12T07:54:09.598Z,15.90
2022-09-12T07:56:39.081Z,16.10
2022-09-12T07:59:06.050Z,16.30
2022-09-12T08:01:32.844Z,16.30
2022-09-12T08:04:00.571Z,16.50
2022-09-12T08:06:29.283Z,16.60
2022-09-12T08:08:57.462Z,17.20
2022-09-12T08:11:25.637Z,19.30
2022-09-12T08:13:55.743Z,21.40
2022-09-12T08:16:24.845Z,22.40
2022-09-12T08:18:51.554Z,23.10
2022-09-12T08:21:26.743Z,22.90
2022-09-12T08:23:58.351Z,23.70
2022-09-12T08:26:25.392Z,24.40
2022-09-12T08:28:52.303Z,24.90
2022-09-12T08:31:21.183Z,24.80
2022-09-12T08:33:48.096Z,25.40
2022-09-12T08:36:17.125Z,25.10
2022-09-12T08:38:46.057Z,24.80
2022-09-12T08:41:18.528Z,24.90
2022-09-12T08:44:09.089Z,25.00
2022-09-12T08:46:45.215Z,24.10
2022-09-12T08:49:16.988Z,23.70
2022-09-12T08:51:44.014Z,24.20
2022-09-12T08:54:25.201Z,25.70
2022-09-12T08:56:58.008Z,26.00
2022-09-12T08:59:24.858Z,26.20
2022-09-12T09:01:54.532Z,26.60
2022-09-12T09:04:28.876Z,25.70
2022-09-12T09:07:04.880Z,23.80
2022-09-12T09:09:50.183Z,24.60
2022-09-12T09:12:29.195Z,24.80
2022-09-12T09:15:17.613Z,25.40
2022-09-12T09:17:55.573Z,25.20
2022-09-12T09:23:40.761Z,24.80
2022-09-12T09:26:35.932Z,26.00
2022-09-12T09:29:11.195Z,26.30
2022-09-12T09:31:39.158Z,26.10
2022-09-12T09:34:28.275Z,26.70
2022-09-12T09:37:40.487Z,27.10
2022-09-12T09:40:19.668Z,27.00
2022-09-12T09:43:04.597Z,27.00
2022-09-12T09:45:31.872Z,27.30
2022-09-12T09:48:10.604Z,27.00
2022-09-12T09:50:38.133Z,27.10
2022-09-12T09:53:09.365Z,26.90
2022-09-12T09:55:42.314Z,25.80
2022-09-12T09:58:09.071Z,26.60
2022-09-12T10:00:37.521Z,27.20
2022-09-12T10:03:10.243Z,26.90
2022-09-12T10:08:43.600Z,27.60
2022-09-12T10:14:03.379Z,25.40
2022-09-12T10:16:47.567Z,25.70
2022-09-12T10:19:22.640Z,25.10
2022-09-12T10:24:42.464Z,25.40
2022-09-12T10:27:11.926Z,25.60
2022-09-12T10:29:52.611Z,26.30
2022-09-12T10:35:20.951Z,26.40
2022-09-12T10:38:14.506Z,26.30
2022-09-12T10:40:43.721Z,26.70
2022-09-12T10:43:25.887Z,26.20
2022-09-12T10:45:57.754Z,27.00
2022-09-12T10:48:31.130Z,27.40
2022-09-12T10:50:59.332Z,25.40
2022-09-12T10:56:32.730Z,25.90
2022-09-12T10:59:02.157Z,25.20
2022-09-12T11:01:31.726Z,25.30
2022-09-12T11:04:47.023Z,24.90
2022-09-12T11:07:50.876Z,24.60
2022-09-12T11:10:25.825Z,24.30
2022-09-12T11:13:03.995Z,24.90
2022-09-12T11:15:37.518Z,24.70
2022-09-12T11:18:22.931Z,25.00
2022-09-12T11:21:17.345Z,24.40
2022-09-12T11:24:02.583Z,25.00
2022-09-12T11:26:47.416Z,24.60
2022-09-12T11:29:30.399Z,24.60
2022-09-12T11:32:12.223Z,24.40
2022-09-12T11:37:59.453Z,24.00
2022-09-12T11:40:42.414Z,23.90
2022-09-12T11:43:23.981Z,23.80
2022-09-12T11:52:02.200Z,24.30
2022-09-12T11:54:42.848Z,24.30
2022-09-12T12:00:20.775Z,23.20
2022-09-12T12:03:38.309Z,23.30
2022-09-12T12:06:30.249Z,23.60
2022-09-12T12:08:57.506Z,23.90
2022-09-12T12:11:33.215Z,24.40
2022-09-12T12:14:06.452Z,24.70
2022-09-12T12:19:36.755Z,24.00
2022-09-12T12:22:24.755Z,23.70
2022-09-12T12:28:00.439Z,23.50
2022-09-12T12:30:30.279Z,24.00
2022-09-12T12:33:19.992Z,23.80
2022-09-12T12:36:03.438Z,23.60
2022-09-12T12:38:40.655Z,23.70
2022-09-12T12:41:19.343Z,23.70
2022-09-12T12:43:47.291Z,23.60
2022-09-12T12:46:21.127Z,23.90
2022-09-12T12:52:17.013Z,23.30
2022-09-12T12:54:43.713Z,23.00
2022-09-12T12:57:13.434Z,23.00
2022-09-12T13:00:13.654Z,23.00
2022-09-12T13:02:50.581Z,23.00
2022-09-12T13:05:22.992Z,23.00
2022-09-12T13:08:06.256Z,23.20
2022-09-12T13:10:33.493Z,23.00
2022-09-12T13:13:04.794Z,22.90
2022-09-12T13:15:37.347Z,22.90
2022-09-12T13:18:20.903Z,22.90
2022-09-12T13:20:55.553Z,23.00
2022-09-12T13:23:30.912Z,22.90
2022-09-12T13:25:59.543Z,22.80
2022-09-12T13:28:28.318Z,22.70
2022-09-12T13:30:57.294Z,22.70
2022-09-12T13:33:48.849Z,22.40
2022-09-12T13:36:30.601Z,22.00
2022-09-12T13:39:09.155Z,22.00
2022-09-12T13:42:15.003Z,21.70
2022-09-12T13:47:37.898Z,21.80
2022-09-12T13:50:07.524Z,22.00
2022-09-12T13:52:37.240Z,21.90
2022-09-12T13:55:14.442Z,21.80
2022-09-12T14:00:30.196Z,21.50
2022-09-12T14:05:48.171Z,21.50
2022-09-12T14:11:08.673Z,21.30
2022-09-12T14:13:35.501Z,21.40
2022-09-12T14:16:02.690Z,21.10
2022-09-12T14:18:32.703Z,21.50
2022-09-12T14:23:54.606Z,21.90
2022-09-12T14:29:09.167Z,22.40
2022-09-12T14:34:24.707Z,22.10
2022-09-12T14:39:44.503Z,22.10
2022-09-12T14:42:25.195Z,22.40
2022-09-12T14:45:15.768Z,22.10
2022-09-12T14:47:43.726Z,22.40
2022-09-12T14:50:17.962Z,22.40
2022-09-12T14:55:33.481Z,22.40
2022-09-12T14:58:14.541Z,22.60
2022-09-12T15:01:01.164Z,22.10
2022-09-12T15:03:34.049Z,21.80
2022-09-12T15:06:02.676Z,21.90
2022-09-12T15:11:17.035Z,21.50
2022-09-12T15:13:43.755Z,21.20
2022-09-12T15:16:11.819Z,21.40
2022-09-12T15:18:39.048Z,21.40
2022-09-12T15:23:54.854Z,21.10
2022-09-12T15:26:23.613Z,21.10
2022-09-12T15:28:51.346Z,20.90
2022-09-12T15:31:29.794Z,20.80
2022-09-12T15:33:58.913Z,20.80
2022-09-12T15:36:26.410Z,20.90
2022-09-12T15:38:53.476Z,20.90
2022-09-12T15:41:28.254Z,20.90
2022-09-12T15:43:55.140Z,21.10
2022-09-12T15:46:21.934Z,20.90
2022-09-12T15:48:48.796Z,21.00
2022-09-12T15:51:18.026Z,20.90
2022-09-12T15:53:45.867Z,21.10
2022-09-12T15:56:13.958Z,21.00
2022-09-12T15:58:57.239Z,20.90
2022-09-12T16:04:38.027Z,20.80
2022-09-12T16:07:04.800Z,20.70
2022-09-12T16:09:31.625Z,20.60
2022-09-12T16:14:45.086Z,20.50
2022-09-12T16:19:58.678Z,20.40
2022-09-12T16:22:25.456Z,20.30
2022-09-12T16:24:52.176Z,20.30
2022-09-12T16:27:19.075Z,20.30
2022-09-12T16:29:45.884Z,20.20
2022-09-12T16:32:12.672Z,20.20
2022-09-12T16:34:39.401Z,20.20
2022-09-12T16:37:06.145Z,20.20
2022-09-12T16:39:32.857Z,20.20
2022-09-12T16:41:59.594Z,20.00
2022-09-12T16:44:26.320Z,20.00
2022-09-12T16:49:39.828Z,19.90
2022-09-12T16:54:33.688Z,19.70
2022-09-12T16:57:00.460Z,19.60
2022-09-12T16:59:27.201Z,19.50
2022-09-12T17:01:54.022Z,19.40
2022-09-12T17:04:23.605Z,19.40
2022-09-12T17:06:50.658Z,19.20
2022-09-12T17:09:17.426Z,19.20
2022-09-12T17:11:45.552Z,19.10
2022-09-12T17:14:12.550Z,18.90
2022-09-12T17:16:42.195Z,18.80
2022-09-12T17:19:12.067Z,18.60
2022-09-12T17:24:25.699Z,18.50
2022-09-12T17:26:52.533Z,18.20
2022-09-12T17:29:22.972Z,18.20
2022-09-12T17:31:49.675Z,18.10
2022-09-12T17:37:03.372Z,17.90
2022-09-12T17:39:30.110Z,17.80
2022-09-12T17:41:57.826Z,17.80
2022-09-12T17:44:24.631Z,17.80
2022-09-12T17:46:51.393Z,17.70
2022-09-12T17:49:18.401Z,17.70
2022-09-12T17:54:31.964Z,17.60
2022-09-12T17:56:58.669Z,17.60
2022-09-12T17:59:25.613Z,17.60
2022-09-12T18:01:52.443Z,17.50
2022-09-12T18:04:19.654Z,17.50
2022-09-12T18:06:46.803Z,17.50
2022-09-12T18:09:14.686Z,17.50
2022-09-12T18:11:41.411Z,17.40
2022-09-12T18:14:11.360Z,17.40
2022-09-12T18:16:41.042Z,17.40
2022-09-12T18:19:07.811Z,17.30
2022-09-12T18:21:34.620Z,17.30
2022-09-12T18:24:01.814Z,17.30
2022-09-12T18:26:29.926Z,17.30
2022-09-12T18:28:57.682Z,17.30
2022-09-12T18:31:26.523Z,17.30
2022-09-12T18:36:41.416Z,17.30
2022-09-12T18:41:55.441Z,17.20
2022-09-12T18:44:22.145Z,17.20
2022-09-12T18:46:48.935Z,17.20
2022-09-12T18:49:15.707Z,17.20
2022-09-12T18:51:42.463Z,17.10
2022-09-12T18:54:13.837Z,17.10
2022-09-12T18:56:40.666Z,17.10
2022-09-12T18:59:07.823Z,17.10
2022-09-12T19:01:37.412Z,17.10
2022-09-12T19:04:05.873Z,17.00
2022-09-12T19:09:22.609Z,17.00
2022-09-12T19:11:49.884Z,17.00
2022-09-12T19:14:22.095Z,16.90
2022-09-12T19:16:50.156Z,16.90
2022-09-12T19:22:03.772Z,16.70
2022-09-12T19:24:30.517Z,16.70
2022-09-12T19:26:57.288Z,16.70
2022-09-12T19:29:24.519Z,16.60
2022-09-12T19:31:52.438Z,16.60
2022-09-12T19:34:19.133Z,16.60
2022-09-12T19:36:47.336Z,16.60
2022-09-12T19:39:16.241Z,16.50
2022-09-12T19:41:43.722Z,16.50
2022-09-12T19:46:57.091Z,16.50
2022-09-12T19:52:11.862Z,16.30
2022-09-12T19:57:27.842Z,16.20
2022-09-12T19:59:54.562Z,16.10
2022-09-12T20:02:21.402Z,16.10
2022-09-12T20:04:48.127Z,16.10
2022-09-12T20:07:14.832Z,16.10
2022-09-12T20:09:44.305Z,16.20
2022-09-12T20:12:11.146Z,16.10
2022-09-12T20:14:37.936Z,16.10
2022-09-12T20:17:04.651Z,16.10
2022-09-12T20:19:31.415Z,16.10
2022-09-12T20:21:58.229Z,16.10
2022-09-12T20:24:25.587Z,16.10
2022-09-12T20:26:52.829Z,16.00
2022-09-12T20:29:19.520Z,16.00
2022-09-12T20:31:46.467Z,16.10
2022-09-12T20:34:19.247Z,16.00
2022-09-12T20:36:46.677Z,16.00
2022-09-12T20:39:19.284Z,16.00
2022-09-12T20:41:46.065Z,16.00
2022-09-12T20:44:13.029Z,16.00
2022-09-12T20:46:39.916Z,16.00
2022-09-12T20:49:07.012Z,15.90
2022-09-12T20:51:33.819Z,15.90
2022-09-12T20:54:02.250Z,15.90
2022-09-12T20:56:29.605Z,15.90
2022-09-12T20:58:56.976Z,15.90
2022-09-12T21:01:25.160Z,15.90
2022-09-12T21:03:52.300Z,15.90
2022-09-12T21:06:19.464Z,15.80
2022-09-12T21:08:47.809Z,15.80
2022-09-12T21:11:15.263Z,15.80
2022-09-12T21:13:42.041Z,15.90
2022-09-12T21:16:15.375Z,15.90
2022-09-12T21:18:42.781Z,15.80
2022-09-12T21:23:59.227Z,15.80
2022-09-12T21:29:12.736Z,15.80
2022-09-12T21:34:26.144Z,15.80
2022-09-12T21:36:52.835Z,15.80
2022-09-12T21:39:19.566Z,15.80
2022-09-12T21:41:46.256Z,15.80
2022-09-12T21:44:13.001Z,15.80
2022-09-12T21:46:39.772Z,15.80
2022-09-12T21:49:06.709Z,15.80
2022-09-12T21:51:33.464Z,15.70
2022-09-12T21:54:00.157Z,15.70
2022-09-12T21:56:26.869Z,15.70
2022-09-12T21:58:53.631Z,15.70
2022-09-12T22:01:20.491Z,15.70
2022-09-12T22:03:47.466Z,15.70
2022-09-12T22:06:14.374Z,15.60
2022-09-12T22:08:41.447Z,15.60
2022-09-12T22:11:09.770Z,15.60
2022-09-12T22:13:41.516Z,15.60
2022-09-12T22:16:08.490Z,15.50
2022-09-12T22:18:36.707Z,15.40
2022-09-12T22:21:07.347Z,15.50
2022-09-12T22:23:34.131Z,15.40
2022-09-12T22:26:03.081Z,15.30
2022-09-12T22:28:29.852Z,15.30
2022-09-12T22:33:43.597Z,15.20
2022-09-12T22:38:57.391Z,15.10
2022-09-12T22:44:11.284Z,15.20
2022-09-12T22:46:38.785Z,15.10
2022-09-12T22:49:06.943Z,15.10
2022-09-12T22:51:34.084Z,15.10
2022-09-12T22:54:00.861Z,15.10
2022-09-12T22:59:14.807Z,15.10
2022-09-12T23:04:28.230Z,15.10
2022-09-12T23:06:55.622Z,15.10
2022-09-12T23:09:22.566Z,15.10
2022-09-12T23:11:49.371Z,15.10
2022-09-12T23:14:16.149Z,15.10
2022-09-12T23:16:42.890Z,15.00
2022-09-12T23:19:09.642Z,15.00
2022-09-12T23:21:36.402Z,15.00
2022-09-12T23:24:03.527Z,15.00
2022-09-12T23:26:30.273Z,15.00
2022-09-12T23:31:51.651Z,15.00
2022-09-12T23:34:18.632Z,15.10
2022-09-12T23:36:45.440Z,15.10
2022-09-12T23:39:12.241Z,15.10
2022-09-12T23:41:38.933Z,15.10
2022-09-12T23:44:05.675Z,15.20
2022-09-12T23:46:32.428Z,15.10
2022-09-12T23:48:59.164Z,15.20
2022-09-12T23:51:25.921Z,15.20
2022-09-12T23:53:52.663Z,15.10
2022-09-12T23:56:19.513Z,15.20
2022-09-12T23:58:46.231Z,15.20
